Ripley, OK (74062)

9:19 AM CDT on September 20, 2014 (GMT -0500)
Cushing Municipal | Change Station
CLOSE
Current Station
Airport
Location: Cushing,
Elevation: 915 ft
Nearby Weather Stations
4.0 Earthquake: Medford, Oklahoma (1 day ago)  

Elev 915 ft 35.95 °N, 96.77 °W | Updated 24 minutes ago

Fog
Fog
68 °F
Feels Like 68 °F
N
6
Wind Variable Wind from South

Today
High -- | Low -- °F
--% Chance of Precip.
Yesterday
High -- | Low -- °F
Precip. -- in
7:13 AM 7:27 PM
Waning Crescent, 12% visible
Pressure 30.02 in
Visibility 2.5 miles
Clouds Overcast 400 ft
Dew Point 68 °F
Humidity 100%
Rainfall 0.00 in
Snow Depth Not available.
UV 0 out of 12
Pollen 9.50 out of 12
Air Quality Not available.
Flu Activity Not available.
METAR KCUH 201355Z AUTO 18005KT 2 1/2SM BR OVC004 20/20 A3002 RMK AO2

More Conditions Fewer Conditions

Pressure 30.02 in
Visibility 2.5 miles
Clouds Overcast 400 ft
Dew Point 68 °F
Humidity 100%
Rainfall 0.00 in
Snow Depth Not available.
UV 0 out of 12
Pollen 9.50 out of 12
Air Quality Not available.
Flu Activity Not available.
METAR KCUH 201355Z AUTO 18005KT 2 1/2SM BR OVC004 20/20 A3002 RMK AO2

More Conditions Fewer Conditions

10-Day Weather Forecast

Almanac

Astronomy

Sep. 20, 2014 Rise Set
Actual Time 7:13 AM CDT 7:27 PM CDT
Civil Twilight 6:48 AM CDT 7:52 PM CDT
Nautical Twilight 6:18 AM CDT 8:22 PM CDT
Astronomical Twilight 5:47 AM CDT 8:53 PM CDT
Moon 3:59 AM CDT 5:27 PM CDT
Length of Visible Light 13h 04m
Length of Day
12h 13m
Tomorrow will be 2m 15s shorter.
Waning Crescent, 12% of the Moon is Illuminated
Today
Waning Crescent
Sep 24
New
Oct 1
First Quarter
Oct 8
Full
Oct 15
Last Quarter

Today's Extremes

State Highs State Lows

Community

WunderPhotos

Upload Photos

1,754,870 photos uploaded!

Nearby

Snow Depth

Station Depth Elevation
No new snow has been reported.

Earthquake Activity

City Distance Mag. Time & Date
Medford, Oklahoma 73 miles 3.2 2:10 AM CDT
2014-09-20
Luther, Oklahoma 25 miles 2.7 4:47 PM CDT
2014-09-19
Guthrie, Oklahoma 32 miles 3.6 12:23 PM CDT
2014-09-19
Jones, Oklahoma 36 miles 2.8 1:13 AM CDT
2014-09-19
Minimum magnitude displayed is 2.5.

Coastal Water Temperatures

Place Temperature
No Stations Reporting

Nearby Weather Stations